sensor_id;sensor_type;location;lat;lon;timestamp;temperature;humidity
9403;DHT22;4741;49.834;10.740;2024-01-11T00:02:01;-7.20;99.90
9403;DHT22;4741;49.834;10.740;2024-01-11T00:04:28;-6.70;99.90
9403;DHT22;4741;49.834;10.740;2024-01-11T00:06:54;-6.70;99.90
9403;DHT22;4741;49.834;10.740;2024-01-11T00:09:21;-7.50;99.90
9403;DHT22;4741;49.834;10.740;2024-01-11T00:11:48;-7.40;99.90
9403;DHT22;4741;49.834;10.740;2024-01-11T00:14:14;-7.30;99.90
9403;DHT22;4741;49.834;10.740;2024-01-11T00:16:41;-7.20;99.90
9403;DHT22;4741;49.834;10.740;2024-01-11T00:19:08;-7.30;99.90
9403;DHT22;4741;49.834;10.740;2024-01-11T00:21:35;-7.20;99.90
9403;DHT22;4741;49.834;10.740;2024-01-11T00:24:07;-7.50;99.90
9403;DHT22;4741;49.834;10.740;2024-01-11T00:26:34;-7.10;99.90
9403;DHT22;4741;49.834;10.740;2024-01-11T00:29:00;-7.40;99.90
9403;DHT22;4741;49.834;10.740;2024-01-11T00:31:27;-7.40;99.90
9403;DHT22;4741;49.834;10.740;2024-01-11T00:33:54;-7.40;99.90
9403;DHT22;4741;49.834;10.740;2024-01-11T00:36:21;-7.00;99.90
9403;DHT22;4741;49.834;10.740;2024-01-11T00:38:47;-7.30;99.90
9403;DHT22;4741;49.834;10.740;2024-01-11T00:41:14;-7.30;99.90
9403;DHT22;4741;49.834;10.740;2024-01-11T00:43:41;-7.30;99.90
9403;DHT22;4741;49.834;10.740;2024-01-11T00:46:08;-7.40;99.90
9403;DHT22;4741;49.834;10.740;2024-01-11T00:48:34;-7.30;99.90
9403;DHT22;4741;49.834;10.740;2024-01-11T00:51:01;-7.60;99.90
9403;DHT22;4741;49.834;10.740;2024-01-11T00:53:28;-7.60;99.90
9403;DHT22;4741;49.834;10.740;2024-01-11T00:55:57;-7.60;99.90
9403;DHT22;4741;49.834;10.740;2024-01-11T00:58:24;-7.60;99.90
9403;DHT22;4741;49.834;10.740;2024-01-11T01:00:51;-7.70;99.90
9403;DHT22;4741;49.834;10.740;2024-01-11T01:03:19;-7.80;99.90
9403;DHT22;4741;49.834;10.740;2024-01-11T01:05:46;-7.60;99.90
9403;DHT22;4741;49.834;10.740;2024-01-11T01:08:14;-7.50;99.90
9403;DHT22;4741;49.834;10.740;2024-01-11T01:10:41;-7.60;99.90
9403;DHT22;4741;49.834;10.740;2024-01-11T01:13:07;-7.60;99.90
9403;DHT22;4741;49.834;10.740;2024-01-11T01:15:34;-7.70;99.90
9403;DHT22;4741;49.834;10.740;2024-01-11T01:18:01;-7.70;99.90
9403;DHT22;4741;49.834;10.740;2024-01-11T01:20:28;-7.60;99.90
9403;DHT22;4741;49.834;10.740;2024-01-11T01:22:55;-7.70;99.90
9403;DHT22;4741;49.834;10.740;2024-01-11T01:25:21;-7.60;99.90
9403;DHT22;4741;49.834;10.740;2024-01-11T01:27:48;-7.50;99.90
9403;DHT22;4741;49.834;10.740;2024-01-11T01:30:15;-7.50;99.90
9403;DHT22;4741;49.834;10.740;2024-01-11T01:32:41;-7.70;99.90
9403;DHT22;4741;49.834;10.740;2024-01-11T01:35:08;-7.90;99.90
9403;DHT22;4741;49.834;10.740;2024-01-11T01:37:35;-7.90;99.90
9403;DHT22;4741;49.834;10.740;2024-01-11T01:40:02;-7.80;99.90
9403;DHT22;4741;49.834;10.740;2024-01-11T01:42:29;-7.80;99.90
9403;DHT22;4741;49.834;10.740;2024-01-11T01:44:56;-7.80;99.90
9403;DHT22;4741;49.834;10.740;2024-01-11T01:47:22;-7.80;99.90
9403;DHT22;4741;49.834;10.740;2024-01-11T01:49:49;-7.70;99.90
9403;DHT22;4741;49.834;10.740;2024-01-11T01:52:16;-7.70;99.90
9403;DHT22;4741;49.834;10.740;2024-01-11T01:54:43;-7.80;99.90
9403;DHT22;4741;49.834;10.740;2024-01-11T01:57:10;-7.70;99.90
9403;DHT22;4741;49.834;10.740;2024-01-11T01:59:38;-7.80;99.90
9403;DHT22;4741;49.834;10.740;2024-01-11T02:02:05;-7.80;99.90
9403;DHT22;4741;49.834;10.740;2024-01-11T02:04:32;-7.90;99.90
9403;DHT22;4741;49.834;10.740;2024-01-11T02:06:59;-7.80;99.90
9403;DHT22;4741;49.834;10.740;2024-01-11T02:09:26;-7.80;99.90
9403;DHT22;4741;49.834;10.740;2024-01-11T02:11:54;-7.90;99.90
9403;DHT22;4741;49.834;10.740;2024-01-11T02:14:20;-7.90;99.90
9403;DHT22;4741;49.834;10.740;2024-01-11T02:16:47;-7.90;99.90
9403;DHT22;4741;49.834;10.740;2024-01-11T02:19:14;-7.90;99.90
9403;DHT22;4741;49.834;10.740;2024-01-11T02:21:42;-7.90;99.90
9403;DHT22;4741;49.834;10.740;2024-01-11T02:24:08;-7.80;99.90
9403;DHT22;4741;49.834;10.740;2024-01-11T02:26:36;-7.80;99.90
9403;DHT22;4741;49.834;10.740;2024-01-11T02:29:02;-7.90;99.90
9403;DHT22;4741;49.834;10.740;2024-01-11T02:31:29;-7.90;99.90
9403;DHT22;4741;49.834;10.740;2024-01-11T02:33:56;-7.90;99.90
9403;DHT22;4741;49.834;10.740;2024-01-11T02:36:23;-7.90;99.90
9403;DHT22;4741;49.834;10.740;2024-01-11T02:38:51;-7.90;99.90
9403;DHT22;4741;49.834;10.740;2024-01-11T02:41:18;-8.00;99.90
9403;DHT22;4741;49.834;10.740;2024-01-11T02:43:48;-8.00;99.90
9403;DHT22;4741;49.834;10.740;2024-01-11T02:46:16;-8.00;99.90
9403;DHT22;4741;49.834;10.740;2024-01-11T02:48:43;-8.00;99.90
9403;DHT22;4741;49.834;10.740;2024-01-11T02:51:10;-8.10;99.90
9403;DHT22;4741;49.834;10.740;2024-01-11T02:53:36;-8.20;99.90
9403;DHT22;4741;49.834;10.740;2024-01-11T02:56:04;-8.20;99.90
9403;DHT22;4741;49.834;10.740;2024-01-11T02:58:30;-8.20;99.90
9403;DHT22;4741;49.834;10.740;2024-01-11T03:00:57;-8.20;99.90
9403;DHT22;4741;49.834;10.740;2024-01-11T03:03:24;-8.20;99.90
9403;DHT22;4741;49.834;10.740;2024-01-11T03:05:51;-8.00;99.90
9403;DHT22;4741;49.834;10.740;2024-01-11T03:08:17;-8.10;99.90
9403;DHT22;4741;49.834;10.740;2024-01-11T03:10:44;-8.10;99.90
9403;DHT22;4741;49.834;10.740;2024-01-11T03:13:11;-8.10;99.90
9403;DHT22;4741;49.834;10.740;2024-01-11T03:15:37;-8.10;99.90
9403;DHT22;4741;49.834;10.740;2024-01-11T03:18:04;-8.10;99.90
9403;DHT22;4741;49.834;10.740;2024-01-11T03:20:31;-8.20;99.90
9403;DHT22;4741;49.834;10.740;2024-01-11T03:22:58;-8.30;99.90
9403;DHT22;4741;49.834;10.740;2024-01-11T03:25:25;-8.20;99.90
9403;DHT22;4741;49.834;10.740;2024-01-11T03:27:51;-8.30;99.90
9403;DHT22;4741;49.834;10.740;2024-01-11T03:30:18;-8.30;99.90
9403;DHT22;4741;49.834;10.740;2024-01-11T03:32:45;-8.30;99.90
9403;DHT22;4741;49.834;10.740;2024-01-11T03:35:12;-8.30;99.90
9403;DHT22;4741;49.834;10.740;2024-01-11T03:37:38;-8.30;99.90
9403;DHT22;4741;49.834;10.740;2024-01-11T03:40:05;-8.30;99.90
9403;DHT22;4741;49.834;10.740;2024-01-11T03:42:32;-8.30;99.90
9403;DHT22;4741;49.834;10.740;2024-01-11T03:44:59;-8.30;99.90
9403;DHT22;4741;49.834;10.740;2024-01-11T03:47:25;-8.50;99.90
9403;DHT22;4741;49.834;10.740;2024-01-11T03:49:52;-8.40;99.90
9403;DHT22;4741;49.834;10.740;2024-01-11T03:52:19;-8.40;99.90
9403;DHT22;4741;49.834;10.740;2024-01-11T03:54:45;-8.40;99.90
9403;DHT22;4741;49.834;10.740;2024-01-11T03:57:12;-8.40;99.90
9403;DHT22;4741;49.834;10.740;2024-01-11T03:59:39;-8.30;99.90
9403;DHT22;4741;49.834;10.740;2024-01-11T04:02:06;-8.30;99.90
9403;DHT22;4741;49.834;10.740;2024-01-11T04:04:34;-8.30;99.90
9403;DHT22;4741;49.834;10.740;2024-01-11T04:07:00;-8.40;99.90
9403;DHT22;4741;49.834;10.740;2024-01-11T04:09:27;-8.60;99.90
9403;DHT22;4741;49.834;10.740;2024-01-11T04:11:53;-8.70;99.90
9403;DHT22;4741;49.834;10.740;2024-01-11T04:14:20;-8.50;99.90
9403;DHT22;4741;49.834;10.740;2024-01-11T04:16:47;-8.60;99.90
9403;DHT22;4741;49.834;10.740;2024-01-11T04:19:14;-9.50;99.90
9403;DHT22;4741;49.834;10.740;2024-01-11T04:21:42;-8.70;99.90
9403;DHT22;4741;49.834;10.740;2024-01-11T04:24:09;-8.60;99.90
9403;DHT22;4741;49.834;10.740;2024-01-11T04:26:36;-8.80;99.90
9403;DHT22;4741;49.834;10.740;2024-01-11T04:29:02;-8.80;99.90
9403;DHT22;4741;49.834;10.740;2024-01-11T04:31:29;-8.70;99.90
9403;DHT22;4741;49.834;10.740;2024-01-11T04:33:57;-8.50;99.90
9403;DHT22;4741;49.834;10.740;2024-01-11T04:36:23;-8.50;99.90
9403;DHT22;4741;49.834;10.740;2024-01-11T04:38:50;-8.50;99.90
9403;DHT22;4741;49.834;10.740;2024-01-11T04:41:17;-8.50;99.90
9403;DHT22;4741;49.834;10.740;2024-01-11T04:43:44;-8.50;99.90
9403;DHT22;4741;49.834;10.740;2024-01-11T04:46:15;-8.60;99.90
9403;DHT22;4741;49.834;10.740;2024-01-11T04:48:41;-8.50;99.90
9403;DHT22;4741;49.834;10.740;2024-01-11T04:51:08;-8.50;99.90
9403;DHT22;4741;49.834;10.740;2024-01-11T04:53:38;-8.50;99.90
9403;DHT22;4741;49.834;10.740;2024-01-11T04:56:06;-8.50;99.90
9403;DHT22;4741;49.834;10.740;2024-01-11T04:58:38;-8.50;99.90
9403;DHT22;4741;49.834;10.740;2024-01-11T05:01:05;-8.50;99.90
9403;DHT22;4741;49.834;10.740;2024-01-11T05:03:32;-8.60;99.90
9403;DHT22;4741;49.834;10.740;2024-01-11T05:05:59;-8.60;99.90
9403;DHT22;4741;49.834;10.740;2024-01-11T05:08:26;-8.60;99.90
9403;DHT22;4741;49.834;10.740;2024-01-11T05:10:54;-8.60;99.90
9403;DHT22;4741;49.834;10.740;2024-01-11T05:13:21;-8.60;99.90
9403;DHT22;4741;49.834;10.740;2024-01-11T05:15:48;-8.60;99.90
9403;DHT22;4741;49.834;10.740;2024-01-11T05:18:14;-8.70;99.90
9403;DHT22;4741;49.834;10.740;2024-01-11T05:20:41;-8.70;99.90
9403;DHT22;4741;49.834;10.740;2024-01-11T05:23:08;-8.70;99.90
9403;DHT22;4741;49.834;10.740;2024-01-11T05:25:35;-8.70;99.90
9403;DHT22;4741;49.834;10.740;2024-01-11T05:28:02;-8.70;99.90
9403;DHT22;4741;49.834;10.740;2024-01-11T05:30:30;-8.70;99.90
9403;DHT22;4741;49.834;10.740;2024-01-11T05:32:57;-8.70;99.90
9403;DHT22;4741;49.834;10.740;2024-01-11T05:35:24;-8.70;99.90
9403;DHT22;4741;49.834;10.740;2024-01-11T05:37:53;-8.70;99.90
9403;DHT22;4741;49.834;10.740;2024-01-11T05:40:23;-8.80;99.90
9403;DHT22;4741;49.834;10.740;2024-01-11T05:42:50;-8.80;99.90
9403;DHT22;4741;49.834;10.740;2024-01-11T05:45:17;-8.70;99.90
9403;DHT22;4741;49.834;10.740;2024-01-11T05:47:49;-8.80;99.90
9403;DHT22;4741;49.834;10.740;2024-01-11T05:50:16;-8.90;99.90
9403;DHT22;4741;49.834;10.740;2024-01-11T05:52:43;-8.90;99.90
9403;DHT22;4741;49.834;10.740;2024-01-11T05:55:10;-8.90;99.90
9403;DHT22;4741;49.834;10.740;2024-01-11T05:57:37;-8.90;99.90
9403;DHT22;4741;49.834;10.740;2024-01-11T06:00:04;-8.80;99.90
9403;DHT22;4741;49.834;10.740;2024-01-11T06:02:31;-8.80;99.90
9403;DHT22;4741;49.834;10.740;2024-01-11T06:04:58;-8.80;99.90
9403;DHT22;4741;49.834;10.740;2024-01-11T06:07:25;-8.90;99.90
9403;DHT22;4741;49.834;10.740;2024-01-11T06:09:51;-8.80;99.90
9403;DHT22;4741;49.834;10.740;2024-01-11T06:12:19;-8.80;99.90
9403;DHT22;4741;49.834;10.740;2024-01-11T06:14:46;-9.00;99.90
9403;DHT22;4741;49.834;10.740;2024-01-11T06:17:12;-9.00;99.90
9403;DHT22;4741;49.834;10.740;2024-01-11T06:19:40;-8.90;99.90
9403;DHT22;4741;49.834;10.740;2024-01-11T06:22:06;-9.00;99.90
9403;DHT22;4741;49.834;10.740;2024-01-11T06:24:33;-9.00;99.90
9403;DHT22;4741;49.834;10.740;2024-01-11T06:27:00;-9.30;99.90
9403;DHT22;4741;49.834;10.740;2024-01-11T06:29:26;-9.20;99.90
9403;DHT22;4741;49.834;10.740;2024-01-11T06:31:53;-9.20;99.90
9403;DHT22;4741;49.834;10.740;2024-01-11T06:34:20;-9.40;99.90
9403;DHT22;4741;49.834;10.740;2024-01-11T06:36:47;-9.40;99.90
9403;DHT22;4741;49.834;10.740;2024-01-11T06:39:13;-9.30;99.90
9403;DHT22;4741;49.834;10.740;2024-01-11T06:41:40;-9.10;99.90
9403;DHT22;4741;49.834;10.740;2024-01-11T06:44:07;-9.20;99.90
9403;DHT22;4741;49.834;10.740;2024-01-11T06:46:33;-9.10;99.90
9403;DHT22;4741;49.834;10.740;2024-01-11T06:49:02;-9.10;99.90
9403;DHT22;4741;49.834;10.740;2024-01-11T06:51:30;-9.30;99.90
9403;DHT22;4741;49.834;10.740;2024-01-11T06:53:56;-9.20;99.90
9403;DHT22;4741;49.834;10.740;2024-01-11T06:56:23;-9.30;99.90
9403;DHT22;4741;49.834;10.740;2024-01-11T06:58:50;-9.40;99.90
9403;DHT22;4741;49.834;10.740;2024-01-11T07:01:17;-9.40;99.90
9403;DHT22;4741;49.834;10.740;2024-01-11T07:03:44;-9.30;99.90
9403;DHT22;4741;49.834;10.740;2024-01-11T07:06:11;-9.10;99.90
9403;DHT22;4741;49.834;10.740;2024-01-11T07:08:38;-9.20;99.90
9403;DHT22;4741;49.834;10.740;2024-01-11T07:11:05;-9.10;99.90
9403;DHT22;4741;49.834;10.740;2024-01-11T07:13:32;-9.10;99.90
9403;DHT22;4741;49.834;10.740;2024-01-11T07:15:59;-9.10;99.90
9403;DHT22;4741;49.834;10.740;2024-01-11T07:18:25;-9.10;99.90
9403;DHT22;4741;49.834;10.740;2024-01-11T07:20:52;-9.10;99.90
9403;DHT22;4741;49.834;10.740;2024-01-11T07:23:19;-9.10;99.90
9403;DHT22;4741;49.834;10.740;2024-01-11T07:25:47;-9.10;99.90
9403;DHT22;4741;49.834;10.740;2024-01-11T07:28:14;-9.10;99.90
9403;DHT22;4741;49.834;10.740;2024-01-11T07:30:40;-9.20;99.90
9403;DHT22;4741;49.834;10.740;2024-01-11T07:33:07;-9.10;99.90
9403;DHT22;4741;49.834;10.740;2024-01-11T07:35:36;-9.30;99.90
9403;DHT22;4741;49.834;10.740;2024-01-11T07:38:03;-9.30;99.90
9403;DHT22;4741;49.834;10.740;2024-01-11T07:40:30;-9.30;99.90
9403;DHT22;4741;49.834;10.740;2024-01-11T07:43:01;-9.30;99.90
9403;DHT22;4741;49.834;10.740;2024-01-11T07:45:28;-9.00;99.90
9403;DHT22;4741;49.834;10.740;2024-01-11T07:47:54;-9.00;99.90
9403;DHT22;4741;49.834;10.740;2024-01-11T07:50:21;-8.90;99.90
9403;DHT22;4741;49.834;10.740;2024-01-11T07:52:48;-8.80;99.90
9403;DHT22;4741;49.834;10.740;2024-01-11T07:55:15;-8.80;99.90
9403;DHT22;4741;49.834;10.740;2024-01-11T07:57:42;-8.80;99.90
9403;DHT22;4741;49.834;10.740;2024-01-11T08:00:08;-8.80;99.90
9403;DHT22;4741;49.834;10.740;2024-01-11T08:02:35;-8.70;99.90
9403;DHT22;4741;49.834;10.740;2024-01-11T08:05:02;-8.90;99.90
9403;DHT22;4741;49.834;10.740;2024-01-11T08:07:30;-8.50;99.90
9403;DHT22;4741;49.834;10.740;2024-01-11T08:09:56;-8.50;99.90
9403;DHT22;4741;49.834;10.740;2024-01-11T08:12:23;-8.50;99.90
9403;DHT22;4741;49.834;10.740;2024-01-11T08:14:50;-8.30;99.90
9403;DHT22;4741;49.834;10.740;2024-01-11T08:17:16;-8.20;99.90
9403;DHT22;4741;49.834;10.740;2024-01-11T08:19:43;-8.10;99.90
9403;DHT22;4741;49.834;10.740;2024-01-11T08:22:10;-7.90;99.90
9403;DHT22;4741;49.834;10.740;2024-01-11T08:24:38;-7.80;99.90
9403;DHT22;4741;49.834;10.740;2024-01-11T08:27:04;-7.80;99.90
9403;DHT22;4741;49.834;10.740;2024-01-11T08:29:32;-7.70;99.90
9403;DHT22;4741;49.834;10.740;2024-01-11T08:32:00;-7.50;99.90
9403;DHT22;4741;49.834;10.740;2024-01-11T08:34:49;-7.20;99.90
9403;DHT22;4741;49.834;10.740;2024-01-11T08:37:16;-7.00;99.90
9403;DHT22;4741;49.834;10.740;2024-01-11T08:39:43;-6.90;99.90
9403;DHT22;4741;49.834;10.740;2024-01-11T08:42:09;-6.70;99.90
9403;DHT22;4741;49.834;10.740;2024-01-11T08:44:36;-6.60;99.90
9403;DHT22;4741;49.834;10.740;2024-01-11T08:47:03;-6.50;99.90
9403;DHT22;4741;49.834;10.740;2024-01-11T08:49:30;-6.50;99.90
9403;DHT22;4741;49.834;10.740;2024-01-11T08:51:57;-6.50;99.90
9403;DHT22;4741;49.834;10.740;2024-01-11T08:54:23;-6.30;99.90
9403;DHT22;4741;49.834;10.740;2024-01-11T08:56:50;-6.10;99.90
9403;DHT22;4741;49.834;10.740;2024-01-11T08:59:17;-6.10;99.90
9403;DHT22;4741;49.834;10.740;2024-01-11T09:01:44;-5.90;99.90
9403;DHT22;4741;49.834;10.740;2024-01-11T09:04:22;-5.70;99.90
9403;DHT22;4741;49.834;10.740;2024-01-11T09:06:49;-5.40;99.90
9403;DHT22;4741;49.834;10.740;2024-01-11T09:09:16;-5.30;99.90
9403;DHT22;4741;49.834;10.740;2024-01-11T09:11:43;-5.30;99.90
9403;DHT22;4741;49.834;10.740;2024-01-11T09:14:10;-5.10;99.90
9403;DHT22;4741;49.834;10.740;2024-01-11T09:16:38;-4.90;99.90
9403;DHT22;4741;49.834;10.740;2024-01-11T09:19:06;-4.80;99.90
9403;DHT22;4741;49.834;10.740;2024-01-11T09:21:33;-4.70;99.90
9403;DHT22;4741;49.834;10.740;2024-01-11T09:23:59;-4.60;99.90
9403;DHT22;4741;49.834;10.740;2024-01-11T09:26:26;-4.60;99.90
9403;DHT22;4741;49.834;10.740;2024-01-11T09:28:53;-4.20;99.90
9403;DHT22;4741;49.834;10.740;2024-01-11T09:31:19;-4.10;99.90
9403;DHT22;4741;49.834;10.740;2024-01-11T09:33:46;-3.90;99.90
9403;DHT22;4741;49.834;10.740;2024-01-11T09:36:13;-4.10;99.90
9403;DHT22;4741;49.834;10.740;2024-01-11T09:38:39;-4.00;99.90
9403;DHT22;4741;49.834;10.740;2024-01-11T09:41:07;-3.90;99.90
9403;DHT22;4741;49.834;10.740;2024-01-11T09:43:38;-3.90;99.90
9403;DHT22;4741;49.834;10.740;2024-01-11T09:46:05;-3.80;99.90
9403;DHT22;4741;49.834;10.740;2024-01-11T09:48:32;-3.80;99.90
9403;DHT22;4741;49.834;10.740;2024-01-11T09:51:00;-3.60;99.90
9403;DHT22;4741;49.834;10.740;2024-01-11T09:53:28;-3.40;99.90
9403;DHT22;4741;49.834;10.740;2024-01-11T09:55:55;-3.40;99.90
9403;DHT22;4741;49.834;10.740;2024-01-11T09:58:22;-3.20;99.90
9403;DHT22;4741;49.834;10.740;2024-01-11T10:00:48;-3.10;99.90
9403;DHT22;4741;49.834;10.740;2024-01-11T10:03:16;-3.00;99.90
9403;DHT22;4741;49.834;10.740;2024-01-11T10:05:44;-2.80;99.90
9403;DHT22;4741;49.834;10.740;2024-01-11T10:08:11;-2.60;99.90
9403;DHT22;4741;49.834;10.740;2024-01-11T10:10:38;-2.20;99.90
9403;DHT22;4741;49.834;10.740;2024-01-11T10:13:07;-2.20;99.90
9403;DHT22;4741;49.834;10.740;2024-01-11T10:15:33;-2.40;99.90
9403;DHT22;4741;49.834;10.740;2024-01-11T10:18:00;-2.80;99.90
9403;DHT22;4741;49.834;10.740;2024-01-11T10:20:33;-2.70;99.90
9403;DHT22;4741;49.834;10.740;2024-01-11T10:23:29;-2.50;99.90
9403;DHT22;4741;49.834;10.740;2024-01-11T10:26:18;-2.30;99.90
9403;DHT22;4741;49.834;10.740;2024-01-11T10:29:02;-2.30;99.90
9403;DHT22;4741;49.834;10.740;2024-01-11T10:31:30;-2.30;99.90
9403;DHT22;4741;49.834;10.740;2024-01-11T10:34:01;-2.30;99.90
9403;DHT22;4741;49.834;10.740;2024-01-11T10:36:33;-2.20;99.90
9403;DHT22;4741;49.834;10.740;2024-01-11T10:39:01;-2.00;99.90
9403;DHT22;4741;49.834;10.740;2024-01-11T10:41:28;-2.00;99.90
9403;DHT22;4741;49.834;10.740;2024-01-11T10:43:55;-2.10;99.90
9403;DHT22;4741;49.834;10.740;2024-01-11T10:46:25;-2.00;99.90
9403;DHT22;4741;49.834;10.740;2024-01-11T10:48:53;-1.90;99.90
9403;DHT22;4741;49.834;10.740;2024-01-11T10:51:22;-1.50;99.90
9403;DHT22;4741;49.834;10.740;2024-01-11T10:53:50;-1.50;99.90
9403;DHT22;4741;49.834;10.740;2024-01-11T10:56:18;-1.50;99.90
9403;DHT22;4741;49.834;10.740;2024-01-11T10:58:46;-1.20;99.90
9403;DHT22;4741;49.834;10.740;2024-01-11T11:01:13;-0.90;99.90
9403;DHT22;4741;49.834;10.740;2024-01-11T11:03:40;-0.60;99.90
9403;DHT22;4741;49.834;10.740;2024-01-11T11:06:10;-0.50;99.90
9403;DHT22;4741;49.834;10.740;2024-01-11T11:08:37;-0.30;99.90
9403;DHT22;4741;49.834;10.740;2024-01-11T11:11:04;0.10;99.90
9403;DHT22;4741;49.834;10.740;2024-01-11T11:13:33;0.40;99.90
9403;DHT22;4741;49.834;10.740;2024-01-11T11:16:02;0.80;99.90
9403;DHT22;4741;49.834;10.740;2024-01-11T11:18:31;1.00;99.90
9403;DHT22;4741;49.834;10.740;2024-01-11T11:20:58;1.40;99.90
9403;DHT22;4741;49.834;10.740;2024-01-11T11:23:25;1.70;99.90
9403;DHT22;4741;49.834;10.740;2024-01-11T11:25:53;1.60;99.90
9403;DHT22;4741;49.834;10.740;2024-01-11T11:28:20;1.40;99.90
9403;DHT22;4741;49.834;10.740;2024-01-11T11:30:52;1.40;99.90
9403;DHT22;4741;49.834;10.740;2024-01-11T11:33:25;1.60;99.90
9403;DHT22;4741;49.834;10.740;2024-01-11T11:35:57;2.40;99.90
9403;DHT22;4741;49.834;10.740;2024-01-11T11:38:47;3.20;99.90
9403;DHT22;4741;49.834;10.740;2024-01-11T11:41:14;3.20;99.90
9403;DHT22;4741;49.834;10.740;2024-01-11T11:43:43;3.50;99.30
9403;DHT22;4741;49.834;10.740;2024-01-11T11:46:14;4.00;99.90
9403;DHT22;4741;49.834;10.740;2024-01-11T11:51:11;4.80;97.70
9403;DHT22;4741;49.834;10.740;2024-01-11T11:53:42;4.50;96.40
9403;DHT22;4741;49.834;10.740;2024-01-11T11:56:13;6.60;93.60
9403;DHT22;4741;49.834;10.740;2024-01-11T11:58:43;5.90;94.50
9403;DHT22;4741;49.834;10.740;2024-01-11T12:01:10;6.60;91.90
9403;DHT22;4741;49.834;10.740;2024-01-11T12:03:40;6.10;92.00
9403;DHT22;4741;49.834;10.740;2024-01-11T12:06:07;4.20;94.30
9403;DHT22;4741;49.834;10.740;2024-01-11T12:08:35;3.70;96.80
9403;DHT22;4741;49.834;10.740;2024-01-11T12:11:03;4.00;96.30
9403;DHT22;4741;49.834;10.740;2024-01-11T12:13:30;4.80;95.50
9403;DHT22;4741;49.834;10.740;2024-01-11T12:16:00;6.80;93.80
9403;DHT22;4741;49.834;10.740;2024-01-11T12:18:26;5.60;94.00
9403;DHT22;4741;49.834;10.740;2024-01-11T12:20:53;7.30;92.10
9403;DHT22;4741;49.834;10.740;2024-01-11T12:23:20;6.30;91.80
9403;DHT22;4741;49.834;10.740;2024-01-11T12:25:47;6.80;90.60
9403;DHT22;4741;49.834;10.740;2024-01-11T12:28:14;7.90;90.00
9403;DHT22;4741;49.834;10.740;2024-01-11T12:30:41;7.30;88.40
9403;DHT22;4741;49.834;10.740;2024-01-11T12:33:09;8.10;84.90
9403;DHT22;4741;49.834;10.740;2024-01-11T12:35:36;8.10;83.30
9403;DHT22;4741;49.834;10.740;2024-01-11T12:38:04;8.60;83.80
9403;DHT22;4741;49.834;10.740;2024-01-11T12:40:33;8.60;83.50
9403;DHT22;4741;49.834;10.740;2024-01-11T12:43:01;11.60;78.70
9403;DHT22;4741;49.834;10.740;2024-01-11T12:45:28;10.90;75.40
9403;DHT22;4741;49.834;10.740;2024-01-11T12:47:56;11.30;74.30
9403;DHT22;4741;49.834;10.740;2024-01-11T12:50:23;11.10;72.00
9403;DHT22;4741;49.834;10.740;2024-01-11T12:55:45;10.70;73.80
9403;DHT22;4741;49.834;10.740;2024-01-11T12:58:23;10.50;72.90
9403;DHT22;4741;49.834;10.740;2024-01-11T13:00:53;12.80;71.20
9403;DHT22;4741;49.834;10.740;2024-01-11T13:05:47;9.30;71.50
9403;DHT22;4741;49.834;10.740;2024-01-11T13:08:15;10.60;71.10
9403;DHT22;4741;49.834;10.740;2024-01-11T13:13:14;11.40;68.70
9403;DHT22;4741;49.834;10.740;2024-01-11T13:18:08;12.20;68.60
9403;DHT22;4741;49.834;10.740;2024-01-11T13:20:36;11.40;65.40
9403;DHT22;4741;49.834;10.740;2024-01-11T13:23:12;10.70;71.70
9403;DHT22;4741;49.834;10.740;2024-01-11T13:28:10;13.50;65.70
9403;DHT22;4741;49.834;10.740;2024-01-11T13:30:38;13.90;66.90
9403;DHT22;4741;49.834;10.740;2024-01-11T13:35:35;13.30;63.90
9403;DHT22;4741;49.834;10.740;2024-01-11T13:38:02;13.90;64.90
9403;DHT22;4741;49.834;10.740;2024-01-11T13:40:29;14.50;63.70
9403;DHT22;4741;49.834;10.740;2024-01-11T13:42:55;15.10;62.20
9403;DHT22;4741;49.834;10.740;2024-01-11T13:45:25;15.00;60.40
9403;DHT22;4741;49.834;10.740;2024-01-11T13:47:59;15.20;60.20
9403;DHT22;4741;49.834;10.740;2024-01-11T13:50:26;15.20;60.10
9403;DHT22;4741;49.834;10.740;2024-01-11T13:52:54;14.80;60.40
9403;DHT22;4741;49.834;10.740;2024-01-11T13:55:21;14.70;62.00
9403;DHT22;4741;49.834;10.740;2024-01-11T14:02:45;14.50;60.80
9403;DHT22;4741;49.834;10.740;2024-01-11T14:05:12;14.80;60.40
9403;DHT22;4741;49.834;10.740;2024-01-11T14:07:41;14.50;60.20
9403;DHT22;4741;49.834;10.740;2024-01-11T14:10:08;15.20;59.90
9403;DHT22;4741;49.834;10.740;2024-01-11T14:12:36;14.80;59.50
9403;DHT22;4741;49.834;10.740;2024-01-11T14:15:03;14.90;59.30
9403;DHT22;4741;49.834;10.740;2024-01-11T14:17:30;14.50;59.00
9403;DHT22;4741;49.834;10.740;2024-01-11T14:19:57;14.10;60.20
9403;DHT22;4741;49.834;10.740;2024-01-11T14:22:24;14.30;60.10
9403;DHT22;4741;49.834;10.740;2024-01-11T14:24:52;14.00;59.40
9403;DHT22;4741;49.834;10.740;2024-01-11T14:27:20;14.00;61.80
9403;DHT22;4741;49.834;10.740;2024-01-11T14:29:47;13.80;61.70
9403;DHT22;4741;49.834;10.740;2024-01-11T14:32:15;13.50;63.70
9403;DHT22;4741;49.834;10.740;2024-01-11T14:34:59;12.90;64.20
9403;DHT22;4741;49.834;10.740;2024-01-11T14:37:31;13.20;62.30
9403;DHT22;4741;49.834;10.740;2024-01-11T14:49:47;6.00;77.00
9403;DHT22;4741;49.834;10.740;2024-01-11T14:52:14;5.80;81.00
9403;DHT22;4741;49.834;10.740;2024-01-11T14:54:44;4.90;82.50
9403;DHT22;4741;49.834;10.740;2024-01-11T14:57:11;4.40;84.30
9403;DHT22;4741;49.834;10.740;2024-01-11T14:59:39;4.00;85.60
9403;DHT22;4741;49.834;10.740;2024-01-11T15:02:06;3.80;86.60
9403;DHT22;4741;49.834;10.740;2024-01-11T15:09:27;2.60;88.40
9403;DHT22;4741;49.834;10.740;2024-01-11T15:16:48;1.50;99.90
9403;DHT22;4741;49.834;10.740;2024-01-11T15:19:16;0.70;97.40
9403;DHT22;4741;49.834;10.740;2024-01-11T15:21:43;2.40;99.90
9403;DHT22;4741;49.834;10.740;2024-01-11T15:24:16;1.30;99.90
9403;DHT22;4741;49.834;10.740;2024-01-11T15:29:15;1.10;97.00
9403;DHT22;4741;49.834;10.740;2024-01-11T15:31:42;0.40;99.60
9403;DHT22;4741;49.834;10.740;2024-01-11T15:36:39;0.40;98.40
9403;DHT22;4741;49.834;10.740;2024-01-11T15:39:06;0.10;99.50
9403;DHT22;4741;49.834;10.740;2024-01-11T15:54:08;-0.40;99.90
9403;DHT22;4741;49.834;10.740;2024-01-11T16:33:26;-1.90;99.90
9403;DHT22;4741;49.834;10.740;2024-01-11T16:38:24;-2.20;99.90
9403;DHT22;4741;49.834;10.740;2024-01-11T16:40:51;-1.90;99.90
9403;DHT22;4741;49.834;10.740;2024-01-11T16:43:21;-2.80;99.90
9403;DHT22;4741;49.834;10.740;2024-01-11T16:45:48;-2.50;99.90
9403;DHT22;4741;49.834;10.740;2024-01-11T16:48:15;-0.60;99.90
9403;DHT22;4741;49.834;10.740;2024-01-11T16:50:44;-0.60;99.90
9403;DHT22;4741;49.834;10.740;2024-01-11T16:53:11;-0.90;99.90
9403;DHT22;4741;49.834;10.740;2024-01-11T16:58:09;-2.30;99.90
9403;DHT22;4741;49.834;10.740;2024-01-11T17:00:38;-1.90;99.90
9403;DHT22;4741;49.834;10.740;2024-01-11T17:03:05;-2.70;99.90
9403;DHT22;4741;49.834;10.740;2024-01-11T17:17:49;-1.50;99.90
9403;DHT22;4741;49.834;10.740;2024-01-11T17:20:16;-2.70;99.90
9403;DHT22;4741;49.834;10.740;2024-01-11T17:22:43;-2.70;99.90
9403;DHT22;4741;49.834;10.740;2024-01-11T17:25:10;-2.60;99.90
9403;DHT22;4741;49.834;10.740;2024-01-11T17:30:04;-2.80;99.90
9403;DHT22;4741;49.834;10.740;2024-01-11T17:32:33;-2.80;99.90
9403;DHT22;4741;49.834;10.740;2024-01-11T17:35:00;-2.90;99.90
9403;DHT22;4741;49.834;10.740;2024-01-11T17:37:26;-3.00;99.90
9403;DHT22;4741;49.834;10.740;2024-01-11T17:39:54;-2.90;99.90
9403;DHT22;4741;49.834;10.740;2024-01-11T17:44:51;-2.80;99.90
9403;DHT22;4741;49.834;10.740;2024-01-11T17:47:18;-2.80;99.90
9403;DHT22;4741;49.834;10.740;2024-01-11T17:49:45;-2.80;99.90